This is the latest recevied weather packets stored in our database for station/object K5WRW-WX. If no packets are shown the sender has not sent any weather packets the latest 10 day(s).
| Time | Temp. | Humidity | Pressure | Rain* | Wind** | Luminosity | Snow |
|---|---|---|---|---|---|---|---|
| 1777811717 | 15° C | 70% | 1018.9 hPa | 0 mm | - | - | - |
| 1777809917 | 14.44° C | 72% | 1018.7 hPa | 0 mm | - | - | - |
| 1777807517 | 13.89° C | 73% | 1018.6 hPa | 0 mm | - | - | - |
| 1777801517 | 14.44° C | 70% | 1018.4 hPa | 0 mm | - | - | - |
| 1777794316 | 15.56° C | 66% | 1018.5 hPa | 0 mm | - | - | - |
| 1777790116 | 16.11° C | 67% | 1018.7 hPa | 0 mm | - | - | - |
| 1777789516 | 16.11° C | 67% | 1018.7 hPa | 0 mm | - | - | - |
| 1777788316 | 16.11° C | 68% | 1018.8 hPa | 0 mm | - | - | - |
| 1777787716 | 16.11° C | 68% | 1018.8 hPa | 0 mm | - | - | - |
| 1777787116 | 16.11° C | 68% | 1018.7 hPa | 0 mm | - | - | - |
| 1777784716 | 17.22° C | 64% | 1018.4 hPa | 0 mm | - | - | - |
| 1777780515 | 18.33° C | 61% | 1018.3 hPa | 0 mm | - | - | - |
| 1777776315 | 19.44° C | 59% | 1018 hPa | 0 mm | - | - | - |
| 1777775715 | 19.44° C | 59% | 1017.8 hPa | 0 mm | - | - | - |
| 1777773317 | 20.56° C | 58% | 1017.4 hPa | 0 mm | - | - | - |
| 1777772117 | 21.67° C | 53% | 1017.2 hPa | 0 mm | - | - | - |
| 1777765517 | 23.33° C | 44% | 1017.1 hPa | 0 mm | - | - | - |
| 1777762517 | 25° C | 40% | 1017.4 hPa | 0 mm | - | - | - |
| 1777758317 | 24.44° C | 39% | 1017.9 hPa | 0 mm | - | - | - |
| 1777757717 | 23.89° C | 39% | 1017.9 hPa | 0 mm | - | - | - |
| 1777756516 | 24.44° C | 38% | 1018.2 hPa | 0 mm | - | - | - |
| 1777753516 | 23.89° C | 38% | 1018.9 hPa | 0 mm | - | - | - |
| 1777752317 | 23.89° C | 38% | 1019.1 hPa | 0 mm | - | - | - |
| 1777749936 | 22.78° C | 39% | 1019.5 hPa | 0 mm | - | - | - |
| 1777749316 | 22.78° C | 37% | 1019.6 hPa | 0 mm | - | - | - |
* Rain latest hour (hover to see other rain measurements)
** Current wind speed in m/s (hover to see current wind gust speed)